createdAt,value
2018-09-01T00:00:57.904Z,0.00
2018-09-01T00:01:57.940Z,0.00
2018-09-01T00:02:57.884Z,0.00
2018-09-01T00:03:57.897Z,0.00
2018-09-01T00:04:57.881Z,0.00
2018-09-01T00:05:57.886Z,0.00
2018-09-01T00:06:57.917Z,0.00
2018-09-01T00:07:57.914Z,0.00
2018-09-01T00:08:57.906Z,0.00
2018-09-01T00:09:57.932Z,0.00
2018-09-01T00:10:57.891Z,0.00
2018-09-01T00:11:57.906Z,0.00
2018-09-01T00:12:57.915Z,0.00
2018-09-01T00:13:57.902Z,0.00
2018-09-01T00:14:57.908Z,0.00
2018-09-01T00:15:57.911Z,0.00
2018-09-01T00:16:57.919Z,0.00
2018-09-01T00:17:57.931Z,0.00
2018-09-01T00:18:57.914Z,0.00
2018-09-01T00:19:57.938Z,0.00
2018-09-01T00:20:57.938Z,0.00
2018-09-01T00:21:57.911Z,0.00
2018-09-01T00:22:57.916Z,0.00
2018-09-01T00:23:57.934Z,0.00
2018-09-01T00:24:57.930Z,0.00
2018-09-01T00:25:57.965Z,0.00
2018-09-01T00:26:57.928Z,0.00
2018-09-01T00:27:57.940Z,0.00
2018-09-01T00:28:57.930Z,0.00
2018-09-01T00:29:57.932Z,0.00
2018-09-01T00:30:57.926Z,0.00
2018-09-01T00:31:57.973Z,0.00
2018-09-01T00:32:57.936Z,0.00
2018-09-01T00:33:57.952Z,0.00
2018-09-01T00:34:57.943Z,0.00
2018-09-01T00:35:57.970Z,0.00
2018-09-01T00:36:58.441Z,0.00
2018-09-01T00:37:57.969Z,0.00
2018-09-01T00:38:57.953Z,0.00
2018-09-01T00:39:57.988Z,0.00
2018-09-01T00:40:57.967Z,0.00
2018-09-01T00:41:57.954Z,0.00
2018-09-01T00:42:57.963Z,0.00
2018-09-01T00:43:57.958Z,0.00
2018-09-01T00:44:57.957Z,0.00
2018-09-01T00:45:57.962Z,0.00
2018-09-01T00:46:57.967Z,0.00
2018-09-01T00:47:57.985Z,0.00
2018-09-01T00:48:57.967Z,0.00
2018-09-01T00:49:58.452Z,0.00
2018-09-01T00:50:58.012Z,0.00
2018-09-01T00:51:57.964Z,0.00
2018-09-01T00:52:58.013Z,0.00
2018-09-01T00:53:57.986Z,0.00
2018-09-01T00:54:57.997Z,0.00
2018-09-01T00:55:57.981Z,0.00
2018-09-01T00:56:57.973Z,0.00
2018-09-01T00:57:57.988Z,0.00
2018-09-01T00:58:57.984Z,0.00
2018-09-01T00:59:57.989Z,0.00
2018-09-01T01:00:57.993Z,0.00
2018-09-01T01:01:58.455Z,0.00
2018-09-01T01:02:58.128Z,0.00
2018-09-01T01:03:58.083Z,0.00
2018-09-01T01:04:58.027Z,0.00
2018-09-01T01:05:58.004Z,0.00
2018-09-01T01:06:57.996Z,0.00
2018-09-01T01:07:57.991Z,0.00
2018-09-01T01:08:57.994Z,0.00
2018-09-01T01:09:58.015Z,0.00
2018-09-01T01:10:57.985Z,0.00
2018-09-01T01:11:57.988Z,0.00
2018-09-01T01:12:57.995Z,0.00
2018-09-01T01:13:58.023Z,0.00
2018-09-01T01:14:58.048Z,0.00
2018-09-01T01:15:58.004Z,0.00
2018-09-01T01:16:58.010Z,0.00
2018-09-01T01:17:58.012Z,0.00
2018-09-01T01:20:30.785Z,0.00
2018-09-01T01:21:30.778Z,0.00
2018-09-01T01:22:30.579Z,0.00
2018-09-01T01:23:31.100Z,0.00
2018-09-01T01:24:31.100Z,0.00
2018-09-01T01:25:30.589Z,0.00
2018-09-01T01:26:30.640Z,0.00
2018-09-01T01:27:30.596Z,0.00
2018-09-01T01:28:30.617Z,0.00
2018-09-01T01:29:30.605Z,0.00
2018-09-01T01:30:30.609Z,0.00
2018-09-01T01:31:30.595Z,0.00
2018-09-01T01:32:30.600Z,0.00
2018-09-01T01:33:30.638Z,0.00
2018-09-01T01:34:30.620Z,0.00
2018-09-01T01:35:30.645Z,0.00
2018-09-01T01:36:30.628Z,0.00
2018-09-01T01:37:30.604Z,0.00
2018-09-01T01:38:30.611Z,0.00
2018-09-01T01:39:32.207Z,0.00
2018-09-01T01:40:30.605Z,0.00
2018-09-01T01:41:30.686Z,0.00
2018-09-01T01:42:30.612Z,0.00
2018-09-01T01:43:30.624Z,0.00
2018-09-01T01:44:30.652Z,0.00
2018-09-01T01:45:30.628Z,0.00
2018-09-01T01:46:30.635Z,0.00
2018-09-01T02:10:58.792Z,0.00
2018-09-01T02:11:36.911Z,0.00
2018-09-01T02:12:22.228Z,0.00
2018-09-01T02:13:22.209Z,0.00
2018-09-01T02:14:22.214Z,0.00
2018-09-01T02:15:22.214Z,0.00
2018-09-01T02:16:22.205Z,0.00
2018-09-01T02:17:22.212Z,0.00
2018-09-01T02:18:22.220Z,0.00
2018-09-01T02:19:22.233Z,0.00
2018-09-01T02:20:22.226Z,0.00
2018-09-01T02:21:22.227Z,0.00
2018-09-01T02:22:22.230Z,0.00
2018-09-01T02:23:22.237Z,0.00
2018-09-01T02:24:22.241Z,0.00
2018-09-01T02:25:22.228Z,0.00
2018-09-01T02:26:22.233Z,0.00
2018-09-01T02:27:22.278Z,0.00
2018-09-01T02:28:22.237Z,0.00
2018-09-01T02:29:22.236Z,0.00
2018-09-01T02:30:22.246Z,0.00
2018-09-01T02:31:22.240Z,0.00
2018-09-01T02:32:22.251Z,0.00
2018-09-01T02:33:22.249Z,0.00
2018-09-01T02:34:22.238Z,0.00
2018-09-01T02:35:22.251Z,0.00
2018-09-01T02:36:22.272Z,0.00
2018-09-01T02:37:22.251Z,0.00
2018-09-01T02:38:23.037Z,0.00
2018-09-01T02:39:22.249Z,0.00
2018-09-01T02:40:22.341Z,0.00
2018-09-01T02:41:22.436Z,0.00
2018-09-01T02:42:22.281Z,0.00
2018-09-01T02:43:22.253Z,0.00
2018-09-01T02:44:22.264Z,0.00
2018-09-01T02:45:22.256Z,0.00
2018-09-01T02:46:22.284Z,0.00
2018-09-01T02:47:22.271Z,0.00
2018-09-01T02:48:22.249Z,0.00
2018-09-01T02:49:22.277Z,0.00
2018-09-01T02:50:22.264Z,0.00
2018-09-01T02:51:22.278Z,0.00
2018-09-01T02:52:22.274Z,0.00
2018-09-01T02:53:22.297Z,0.00
2018-09-01T02:54:22.282Z,0.00
2018-09-01T02:55:22.288Z,0.00
2018-09-01T02:56:22.280Z,0.00
2018-09-01T02:57:22.275Z,0.00
2018-09-01T02:58:22.281Z,0.00
2018-09-01T02:59:22.303Z,0.00
2018-09-01T03:00:22.277Z,0.00
2018-09-01T03:01:22.270Z,0.00
2018-09-01T03:02:22.287Z,0.00
2018-09-01T03:03:22.290Z,0.00
2018-09-01T03:04:22.284Z,0.00
2018-09-01T03:05:22.285Z,0.00
2018-09-01T03:06:22.297Z,0.00
2018-09-01T03:07:22.293Z,0.00
2018-09-01T03:08:22.311Z,0.00
2018-09-01T03:09:22.291Z,0.00
2018-09-01T03:10:22.338Z,0.00
2018-09-01T03:11:22.303Z,0.00
2018-09-01T03:12:22.314Z,0.00
2018-09-01T03:13:22.302Z,0.00
2018-09-01T03:14:22.303Z,0.00
2018-09-01T03:15:22.319Z,0.00
2018-09-01T03:16:22.294Z,0.00
2018-09-01T03:17:22.335Z,0.00
2018-09-01T03:18:22.320Z,0.00
2018-09-01T03:19:23.046Z,0.00
2018-09-01T03:20:22.311Z,0.00
2018-09-01T03:21:22.333Z,0.00
2018-09-01T03:22:22.314Z,0.00
2018-09-01T03:23:22.313Z,0.00
2018-09-01T03:24:22.322Z,0.00
2018-09-01T03:25:22.316Z,0.00
2018-09-01T03:26:22.337Z,0.00
2018-09-01T03:27:22.357Z,0.00
2018-09-01T03:28:22.335Z,0.00
2018-09-01T03:29:22.345Z,0.00
2018-09-01T03:30:22.333Z,0.00
2018-09-01T03:31:22.351Z,0.00
2018-09-01T03:32:22.473Z,0.00
2018-09-01T03:33:22.333Z,0.00
2018-09-01T03:34:22.417Z,0.00
2018-09-01T03:35:22.358Z,0.00
2018-09-01T03:36:22.349Z,0.00
2018-09-01T03:37:22.325Z,0.00
2018-09-01T03:38:22.346Z,0.00
2018-09-01T03:39:22.352Z,0.00
2018-09-01T03:40:22.344Z,0.00
2018-09-01T03:41:22.359Z,0.00
2018-09-01T03:42:22.352Z,0.00
2018-09-01T03:43:22.354Z,0.00
2018-09-01T03:44:22.406Z,0.00
2018-09-01T03:45:22.542Z,0.00
2018-09-01T03:46:22.370Z,0.00
2018-09-01T03:47:22.351Z,0.00
2018-09-01T03:48:22.344Z,0.00
2018-09-01T03:49:22.387Z,0.00
2018-09-01T03:50:22.360Z,0.00
2018-09-01T03:51:22.358Z,0.00
2018-09-01T03:52:22.406Z,0.00
2018-09-01T03:53:22.382Z,0.00
2018-09-01T03:54:22.394Z,0.00
2018-09-01T03:55:22.343Z,0.00
2018-09-01T03:56:22.353Z,0.00
2018-09-01T03:57:22.389Z,0.00
2018-09-01T03:58:22.351Z,0.00
2018-09-01T03:59:22.348Z,0.00
2018-09-01T04:00:22.362Z,0.00
2018-09-01T04:01:22.373Z,0.00
2018-09-01T04:02:22.375Z,0.00
2018-09-01T04:03:22.498Z,0.00
2018-09-01T04:04:22.393Z,0.00
2018-09-01T04:05:22.392Z,0.00
2018-09-01T04:06:22.384Z,0.00
2018-09-01T04:07:22.393Z,0.00
2018-09-01T04:08:22.434Z,0.00
2018-09-01T04:09:22.374Z,0.00
2018-09-01T04:10:22.372Z,0.00
2018-09-01T04:11:22.374Z,4.00
2018-09-01T04:12:22.370Z,4.00
2018-09-01T04:13:22.388Z,4.00
2018-09-01T04:14:22.369Z,4.00
2018-09-01T04:15:22.385Z,4.00
2018-09-01T04:16:22.492Z,8.00
2018-09-01T04:17:22.391Z,4.00
2018-09-01T04:18:22.396Z,4.00
2018-09-01T04:19:22.404Z,8.00
2018-09-01T04:20:22.391Z,12.00
2018-09-01T04:21:22.424Z,12.00
2018-09-01T04:22:22.413Z,16.00
2018-09-01T04:23:22.424Z,16.00
2018-09-01T04:24:22.409Z,16.00
2018-09-01T04:25:22.406Z,20.00
2018-09-01T04:26:22.411Z,24.00
2018-09-01T04:27:22.394Z,24.00
2018-09-01T04:28:22.395Z,32.00
2018-09-01T04:29:22.460Z,36.00
2018-09-01T04:30:22.394Z,40.00
2018-09-01T04:31:22.403Z,48.00
2018-09-01T04:32:22.408Z,52.00
2018-09-01T04:33:22.416Z,60.00
2018-09-01T04:34:22.407Z,64.00
2018-09-01T04:35:22.408Z,72.00
2018-09-01T04:36:22.411Z,80.00
2018-09-01T04:37:22.425Z,88.00
2018-09-01T04:38:22.439Z,96.00
2018-09-01T04:39:22.438Z,104.00
2018-09-01T04:40:22.573Z,112.00
2018-09-01T04:41:22.536Z,124.00
2018-09-01T04:42:22.478Z,136.00
2018-09-01T04:43:22.437Z,148.00
2018-09-01T04:44:22.408Z,156.00
2018-09-01T04:45:22.420Z,168.00
2018-09-01T04:46:22.416Z,184.00
2018-09-01T04:47:22.475Z,196.00
2018-09-01T04:48:22.465Z,212.00
2018-09-01T04:49:22.424Z,228.00
2018-09-01T04:50:22.423Z,240.00
2018-09-01T04:51:22.462Z,260.00
2018-09-01T04:52:22.416Z,276.00
2018-09-01T04:53:22.427Z,296.00
2018-09-01T04:54:22.461Z,312.00
2018-09-01T04:55:22.437Z,336.00
2018-09-01T04:56:22.473Z,356.00
2018-09-01T04:57:22.432Z,380.00
2018-09-01T04:58:22.440Z,404.00
2018-09-01T04:59:22.470Z,432.00
2018-09-01T05:00:22.495Z,456.00
2018-09-01T05:01:22.469Z,484.00
2018-09-01T05:02:22.432Z,516.00
2018-09-01T05:03:22.442Z,544.00
2018-09-01T05:04:22.446Z,580.00
2018-09-01T05:05:22.438Z,608.00
2018-09-01T05:06:22.446Z,640.00
2018-09-01T05:07:22.441Z,672.00
2018-09-01T05:08:22.449Z,704.00
2018-09-01T05:09:22.443Z,740.00
2018-09-01T05:10:22.482Z,772.00
2018-09-01T05:11:22.445Z,808.00
2018-09-01T05:12:22.445Z,840.00
2018-09-01T05:13:22.456Z,880.00
2018-09-01T05:14:22.451Z,912.00
2018-09-01T05:15:22.461Z,948.00
2018-09-01T05:16:22.472Z,984.00
2018-09-01T05:17:22.498Z,1020.00
2018-09-01T05:18:22.457Z,1060.00
2018-09-01T05:19:22.504Z,1092.00
2018-09-01T05:20:22.483Z,1132.00
2018-09-01T05:21:22.459Z,1168.00
2018-09-01T05:22:22.462Z,1208.00
2018-09-01T05:23:22.638Z,1244.00
2018-09-01T05:24:22.485Z,1280.00
2018-09-01T05:25:22.458Z,1312.00
2018-09-01T05:26:22.466Z,1352.00
2018-09-01T05:27:22.469Z,1392.00
2018-09-01T05:28:22.468Z,1428.00
2018-09-01T05:29:22.469Z,1468.00
2018-09-01T05:30:22.488Z,1508.00
2018-09-01T05:31:22.478Z,1552.00
2018-09-01T05:32:22.483Z,1592.00
2018-09-01T05:33:22.475Z,1644.00
2018-09-01T05:34:22.488Z,1696.00
2018-09-01T05:35:22.472Z,1768.00
2018-09-01T05:36:22.590Z,1872.00
2018-09-01T05:37:22.466Z,2196.00
2018-09-01T05:38:22.475Z,2684.00
2018-09-01T05:39:22.492Z,2912.00
2018-09-01T05:40:22.486Z,3004.00
2018-09-01T05:41:22.598Z,3084.00
2018-09-01T05:42:22.548Z,3016.00
2018-09-01T05:43:22.501Z,2828.00
2018-09-01T05:44:22.490Z,3096.00
2018-09-01T05:45:22.496Z,3520.00
2018-09-01T05:46:22.502Z,3648.00
2018-09-01T05:47:22.513Z,3724.00
2018-09-01T05:48:22.515Z,3796.00
2018-09-01T05:49:22.507Z,3800.00
2018-09-01T05:50:22.503Z,3780.00
2018-09-01T05:51:22.522Z,3904.00
2018-09-01T05:52:22.533Z,4036.00
2018-09-01T05:53:22.523Z,4128.00
2018-09-01T05:54:22.508Z,4252.00
2018-09-01T05:55:22.496Z,4360.00
2018-09-01T05:56:22.501Z,4436.00
2018-09-01T05:57:22.522Z,4508.00
2018-09-01T05:58:22.511Z,4616.00
2018-09-01T05:59:22.519Z,4696.00
2018-09-01T06:00:22.528Z,4756.00
2018-09-01T06:01:22.522Z,4804.00
2018-09-01T06:02:22.512Z,4852.00
2018-09-01T06:03:22.520Z,4936.00
2018-09-01T06:04:22.518Z,5008.00
2018-09-01T06:05:22.539Z,5064.00
2018-09-01T06:06:22.613Z,5076.00
2018-09-01T06:07:22.618Z,4748.00
2018-09-01T06:08:22.542Z,3984.00
2018-09-01T06:09:22.546Z,3548.00
2018-09-01T06:10:22.542Z,4076.00
2018-09-01T06:11:22.535Z,4880.00
2018-09-01T06:12:22.565Z,5284.00
2018-09-01T06:13:22.545Z,5444.00
2018-09-01T06:14:22.669Z,5552.00
2018-09-01T06:15:22.543Z,5636.00
2018-09-01T06:16:22.549Z,5700.00
2018-09-01T06:17:22.582Z,5752.00
2018-09-01T06:18:22.560Z,5784.00
2018-09-01T06:19:22.615Z,5836.00
2018-09-01T06:20:22.581Z,5876.00
2018-09-01T06:21:22.570Z,5936.00
2018-09-01T06:22:22.582Z,6012.00
2018-09-01T06:23:22.576Z,6100.00
2018-09-01T06:24:22.577Z,6172.00
2018-09-01T06:25:22.599Z,6264.00
2018-09-01T06:26:22.589Z,6356.00
2018-09-01T06:27:22.610Z,6456.00
2018-09-01T06:28:22.623Z,6548.00
2018-09-01T06:29:22.606Z,6620.00
2018-09-01T06:30:22.598Z,6672.00
2018-09-01T06:31:22.601Z,6716.00
2018-09-01T06:32:22.603Z,6800.00
2018-09-01T06:33:22.608Z,6848.00
2018-09-01T06:34:22.613Z,6876.00
2018-09-01T06:35:22.672Z,6912.00
2018-09-01T06:36:22.612Z,7008.00
2018-09-01T06:37:22.620Z,7092.00
2018-09-01T06:38:22.654Z,7176.00
2018-09-01T06:39:22.614Z,7272.00
2018-09-01T06:40:22.627Z,7384.00
2018-09-01T06:41:22.665Z,7484.00
2018-09-01T06:42:22.636Z,7588.00
2018-09-01T06:43:22.637Z,7672.00
2018-09-01T06:44:22.640Z,7768.00
2018-09-01T06:45:22.724Z,7852.00
2018-09-01T06:46:22.679Z,7944.00
2018-09-01T06:47:22.654Z,8032.00
2018-09-01T06:48:23.635Z,8100.00
2018-09-01T06:49:22.663Z,8164.00
2018-09-01T06:50:22.707Z,8232.00
2018-09-01T06:51:22.685Z,8324.00
2018-09-01T06:52:22.689Z,8388.00
2018-09-01T06:53:22.694Z,8448.00
2018-09-01T06:54:22.696Z,8516.00
2018-09-01T06:55:22.695Z,8580.00
2018-09-01T06:56:22.715Z,8628.00
2018-09-01T06:57:22.764Z,8704.00
2018-09-01T06:58:23.624Z,8728.00
2018-09-01T06:59:22.735Z,8752.00
2018-09-01T07:00:22.769Z,8820.00
2018-09-01T07:01:22.772Z,8900.00
2018-09-01T07:02:22.777Z,8972.00
2018-09-01T07:03:22.754Z,9004.00
2018-09-01T07:04:22.778Z,9096.00
2018-09-01T07:05:22.770Z,9168.00
2018-09-01T07:06:22.765Z,9260.00
2018-09-01T07:07:22.788Z,9292.00
2018-09-01T07:08:22.829Z,9356.00
2018-09-01T07:09:22.819Z,9404.00
2018-09-01T07:10:22.793Z,9464.00
2018-09-01T07:11:22.904Z,9532.00
2018-09-01T07:12:22.811Z,9600.00
2018-09-01T07:13:22.802Z,9648.00
2018-09-01T07:14:22.814Z,9688.00
2018-09-01T07:15:22.838Z,9740.00
2018-09-01T07:16:22.841Z,9812.00
2018-09-01T07:17:22.865Z,9892.00
2018-09-01T07:18:22.852Z,9948.00
2018-09-01T07:19:22.880Z,10048.00
2018-09-01T07:20:22.907Z,10064.00
2018-09-01T07:21:22.884Z,10152.00
2018-09-01T07:22:22.933Z,10160.00
2018-09-01T07:23:22.907Z,10196.00
2018-09-01T07:24:22.885Z,10312.00
2018-09-01T07:25:22.903Z,10336.00
2018-09-01T07:26:22.932Z,10424.00
2018-09-01T07:27:22.922Z,10500.00
2018-09-01T07:28:22.923Z,10564.00
2018-09-01T07:29:23.026Z,10620.00
2018-09-01T07:30:23.044Z,10728.00
2018-09-01T07:31:23.392Z,10812.00
2018-09-01T07:32:22.968Z,10880.00
2018-09-01T07:33:22.968Z,10988.00
2018-09-01T07:34:22.977Z,11100.00
2018-09-01T07:35:22.994Z,11244.00
2018-09-01T07:36:22.986Z,11412.00
2018-09-01T07:37:23.018Z,11564.00
2018-09-01T07:38:23.015Z,11660.00
2018-09-01T07:39:23.053Z,11772.00
2018-09-01T07:40:23.053Z,11860.00
2018-09-01T07:41:23.049Z,12004.00
2018-09-01T07:42:23.052Z,12084.00
2018-09-01T07:43:23.038Z,12192.00
2018-09-01T07:44:23.057Z,12312.00
2018-09-01T07:45:23.065Z,12460.00
2018-09-01T07:46:23.067Z,12540.00
2018-09-01T07:47:23.080Z,12644.00
2018-09-01T07:48:23.089Z,12784.00
2018-09-01T07:49:23.191Z,12908.00
2018-09-01T07:50:23.105Z,13116.00
2018-09-01T07:51:23.122Z,13292.00
2018-09-01T07:52:23.127Z,13508.00
2018-09-01T07:53:23.137Z,13672.00
2018-09-01T07:54:23.207Z,13820.00
2018-09-01T07:55:23.153Z,13912.00
2018-09-01T07:56:23.195Z,14084.00
2018-09-01T07:57:23.183Z,14240.00
2018-09-01T07:58:23.216Z,14300.00
2018-09-01T07:59:23.329Z,14480.00
2018-09-01T08:00:23.204Z,14708.00
2018-09-01T08:01:23.213Z,14840.00
2018-09-01T08:02:23.242Z,15032.00
2018-09-01T08:03:23.254Z,15156.00
2018-09-01T08:04:23.301Z,15404.00
2018-09-01T08:05:23.272Z,15568.00
2018-09-01T08:06:23.316Z,15800.00
2018-09-01T08:07:23.370Z,15860.00
2018-09-01T08:08:23.317Z,16128.00
2018-09-01T08:09:23.304Z,16320.00
2018-09-01T08:10:23.322Z,16544.00
2018-09-01T08:11:23.343Z,16800.00
2018-09-01T08:12:23.346Z,16928.00
2018-09-01T08:13:23.380Z,17216.00
2018-09-01T08:14:24.194Z,17344.00
2018-09-01T08:15:23.396Z,17696.00
2018-09-01T08:16:23.401Z,17920.00
2018-09-01T08:17:23.407Z,18368.00
2018-09-01T08:18:23.416Z,18752.00
2018-09-01T08:19:23.446Z,19264.00
2018-09-01T08:20:23.436Z,20000.00
2018-09-01T08:21:23.437Z,20480.00
2018-09-01T08:22:23.470Z,21152.00
2018-09-01T08:23:23.472Z,21760.00
2018-09-01T08:24:23.574Z,22784.00
2018-09-01T08:25:23.515Z,24224.00
2018-09-01T08:26:23.531Z,25792.00
2018-09-01T08:27:23.602Z,27072.00
2018-09-01T08:28:23.565Z,28736.00
2018-09-01T08:29:23.556Z,31136.00
2018-09-01T08:30:23.621Z,34720.00
2018-09-01T08:31:23.600Z,40064.00
2018-09-01T08:32:23.637Z,46496.00
2018-09-01T08:33:23.604Z,55520.00
2018-09-01T08:34:23.608Z,68000.00
2018-09-01T08:35:23.614Z,82880.00
2018-09-01T08:36:23.658Z,96736.00
2018-09-01T08:37:23.661Z,108416.00
2018-09-01T08:38:23.720Z,118144.00
2018-09-01T08:39:23.707Z,128224.00
2018-09-01T08:40:23.689Z,136448.00
2018-09-01T08:41:23.698Z,7948.00
2018-09-01T08:42:23.719Z,70752.00
2018-09-01T08:43:23.713Z,100896.00
2018-09-01T08:44:23.736Z,21248.00
2018-09-01T08:45:23.750Z,86912.00
2018-09-01T08:46:23.768Z,78656.00
2018-09-01T08:47:23.834Z,68416.00
2018-09-01T08:48:23.790Z,63072.00
2018-09-01T08:49:23.782Z,60512.00
2018-09-01T08:50:23.840Z,59104.00
2018-09-01T08:51:23.843Z,56992.00
2018-09-01T08:52:23.853Z,41088.00
2018-09-01T08:53:23.863Z,56480.00
2018-09-01T08:54:23.861Z,52704.00
2018-09-01T08:55:23.869Z,52064.00
2018-09-01T08:56:23.897Z,52416.00
2018-09-01T08:57:23.911Z,52608.00
2018-09-01T08:58:23.934Z,51232.00
2018-09-01T08:59:23.965Z,43552.00
2018-09-01T09:00:23.963Z,49632.00
2018-09-01T09:01:23.997Z,49664.00
2018-09-01T09:02:23.993Z,48384.00
2018-09-01T09:03:23.975Z,48064.00
2018-09-01T09:04:24.013Z,9420.00
2018-09-01T09:05:24.069Z,47936.00
2018-09-01T09:06:24.018Z,46304.00
2018-09-01T09:07:24.027Z,45472.00
2018-09-01T09:08:24.042Z,7736.00
2018-09-01T09:09:24.068Z,9020.00
2018-09-01T09:10:24.085Z,9648.00
2018-09-01T09:11:24.304Z,46336.00
2018-09-01T09:12:24.154Z,46368.00
2018-09-01T09:13:24.123Z,48640.00
2018-09-01T09:14:24.161Z,49984.00
2018-09-01T09:15:24.153Z,49664.00
2018-09-01T09:16:24.170Z,32320.00
2018-09-01T09:17:24.195Z,37632.00
2018-09-01T09:18:26.803Z,27776.00
2018-09-01T09:19:24.209Z,7800.00
2018-09-01T09:20:24.220Z,41856.00
2018-09-01T09:21:24.217Z,51616.00
2018-09-01T09:22:24.243Z,51936.00
2018-09-01T09:23:24.274Z,51616.00
2018-09-01T09:24:24.267Z,52704.00
2018-09-01T09:25:24.284Z,55232.00
2018-09-01T09:26:24.289Z,55936.00
2018-09-01T09:27:24.299Z,54880.00
2018-09-01T09:28:24.367Z,46720.00
2018-09-01T09:29:24.327Z,48320.00
2018-09-01T09:30:24.401Z,56640.00
2018-09-01T09:31:24.380Z,63072.00
2018-09-01T09:32:24.429Z,66816.00
2018-09-01T09:33:24.437Z,66176.00
2018-09-01T09:34:24.462Z,67616.00
2018-09-01T09:35:24.430Z,70624.00
2018-09-01T09:36:24.414Z,69440.00
2018-09-01T09:37:24.456Z,68896.00
2018-09-01T09:38:24.457Z,54656.00
2018-09-01T09:39:24.473Z,8316.00
2018-09-01T09:40:24.487Z,8952.00
2018-09-01T09:41:24.497Z,12412.00
2018-09-01T09:42:24.513Z,51296.00
2018-09-01T09:43:24.551Z,49504.00
2018-09-01T09:44:24.581Z,49408.00
2018-09-01T09:45:24.538Z,46592.00
2018-09-01T09:46:24.557Z,48000.00
2018-09-01T09:47:24.597Z,47328.00
2018-09-01T09:48:24.635Z,46240.00
2018-09-01T09:49:24.599Z,45600.00
2018-09-01T09:50:24.613Z,45632.00
2018-09-01T09:51:24.631Z,44960.00
2018-09-01T09:52:24.703Z,45152.00
2018-09-01T09:53:24.673Z,44736.00
2018-09-01T09:54:24.765Z,40640.00
2018-09-01T09:55:24.722Z,44544.00
2018-09-01T09:56:24.723Z,43680.00
2018-09-01T09:57:24.755Z,11328.00
2018-09-01T09:58:24.801Z,21792.00
2018-09-01T09:59:24.755Z,46368.00
2018-09-01T10:00:24.763Z,12260.00
2018-09-01T10:01:24.837Z,10836.00
2018-09-01T10:02:24.815Z,10468.00
2018-09-01T10:03:24.857Z,19744.00
2018-09-01T10:04:25.747Z,44896.00
2018-09-01T10:05:24.905Z,13004.00
2018-09-01T10:06:24.865Z,13752.00
2018-09-01T10:07:24.882Z,54336.00
2018-09-01T10:08:24.898Z,59520.00
2018-09-01T10:09:24.901Z,14608.00
2018-09-01T10:10:24.927Z,14264.00
2018-09-01T10:11:24.930Z,61120.00
2018-09-01T10:12:24.949Z,66112.00
2018-09-01T10:13:24.949Z,63104.00
2018-09-01T10:14:24.964Z,56480.00
2018-09-01T10:15:24.974Z,56960.00
2018-09-01T10:16:25.047Z,58464.00
2018-09-01T10:17:25.009Z,18848.00
2018-09-01T10:18:25.032Z,17376.00
2018-09-01T10:19:25.053Z,26976.00
2018-09-01T10:20:25.109Z,10600.00
2018-09-01T10:21:25.065Z,10020.00
2018-09-01T10:22:25.091Z,70816.00
2018-09-01T10:23:25.122Z,7232.00
2018-09-01T10:24:25.110Z,5388.00
2018-09-01T10:25:25.165Z,4984.00
2018-09-01T10:26:25.168Z,4760.00
2018-09-01T10:27:25.214Z,5512.00
2018-09-01T10:28:25.188Z,6628.00
2018-09-01T10:29:25.196Z,8972.00
2018-09-01T10:30:25.198Z,30528.00
2018-09-01T10:31:25.205Z,78176.00
2018-09-01T10:32:25.214Z,75776.00
2018-09-01T10:33:25.241Z,77600.00
2018-09-01T10:34:25.237Z,78112.00
2018-09-01T10:35:25.250Z,77920.00
2018-09-01T10:36:25.314Z,80864.00
2018-09-01T10:37:25.289Z,80512.00
2018-09-01T10:38:25.419Z,81088.00
2018-09-01T10:39:25.296Z,81312.00
2018-09-01T10:40:25.324Z,31264.00
2018-09-01T10:41:25.400Z,14324.00
2018-09-01T10:42:25.323Z,43936.00
2018-09-01T10:43:25.339Z,33632.00
2018-09-01T10:44:25.464Z,7964.00
2018-09-01T10:45:25.361Z,4896.00
2018-09-01T10:46:25.375Z,4320.00
2018-09-01T10:47:25.395Z,4020.00
2018-09-01T10:48:25.464Z,3964.00
2018-09-01T10:49:25.412Z,3828.00
2018-09-01T10:50:25.422Z,3672.00
2018-09-01T10:51:25.762Z,3644.00
2018-09-01T10:52:25.490Z,3728.00
2018-09-01T10:53:25.478Z,3904.00
2018-09-01T10:54:25.488Z,3876.00
2018-09-01T10:55:25.585Z,3912.00
2018-09-01T10:56:25.493Z,4220.00
2018-09-01T10:57:25.522Z,4580.00
2018-09-01T10:58:25.584Z,5004.00
2018-09-01T10:59:25.586Z,5556.00
2018-09-01T11:00:25.526Z,6104.00
2018-09-01T11:01:25.559Z,6368.00
2018-09-01T11:02:25.575Z,6668.00
2018-09-01T11:03:25.587Z,7168.00
2018-09-01T11:04:25.560Z,7728.00
2018-09-01T11:05:25.735Z,11184.00
2018-09-01T11:06:25.892Z,25856.00
2018-09-01T11:07:25.581Z,34688.00
2018-09-01T11:08:25.843Z,65888.00
2018-09-01T11:09:25.631Z,68224.00
2018-09-01T11:10:25.651Z,69568.00
2018-09-01T11:11:25.635Z,52096.00
2018-09-01T11:12:25.622Z,20192.00
2018-09-01T11:13:25.645Z,8724.00
2018-09-01T11:14:25.656Z,7448.00
2018-09-01T11:15:25.665Z,7504.00
2018-09-01T11:16:25.659Z,7636.00
2018-09-01T11:17:25.673Z,7956.00
2018-09-01T11:18:25.682Z,8156.00
2018-09-01T11:19:25.691Z,8372.00
2018-09-01T11:20:25.729Z,8664.00
2018-09-01T11:21:25.714Z,9176.00
2018-09-01T11:22:25.711Z,9584.00
2018-09-01T11:23:25.722Z,9956.00
2018-09-01T11:24:25.731Z,10560.00
2018-09-01T11:25:25.736Z,11496.00
2018-09-01T11:26:25.784Z,11092.00
2018-09-01T11:27:25.753Z,9808.00
2018-09-01T11:28:25.790Z,9456.00
2018-09-01T11:29:25.792Z,8976.00
2018-09-01T11:30:25.779Z,9052.00
2018-09-01T11:31:25.788Z,10140.00
2018-09-01T11:32:25.784Z,10748.00
2018-09-01T11:33:25.805Z,10996.00
2018-09-01T11:34:25.824Z,11060.00
2018-09-01T11:35:25.831Z,10564.00
2018-09-01T11:36:25.889Z,10612.00
2018-09-01T11:37:25.819Z,10648.00
2018-09-01T11:38:25.830Z,10344.00
2018-09-01T11:39:25.838Z,10348.00
2018-09-01T11:40:25.960Z,9836.00
2018-09-01T11:41:25.843Z,8760.00
2018-09-01T11:42:25.920Z,7588.00
2018-09-01T11:43:25.863Z,6632.00
2018-09-01T11:44:25.867Z,6104.00
2018-09-01T11:45:25.880Z,5548.00
2018-09-01T11:46:25.880Z,5192.00
2018-09-01T11:47:25.892Z,4860.00
2018-09-01T11:48:25.929Z,4548.00
2018-09-01T11:49:25.898Z,4448.00
2018-09-01T11:50:25.917Z,4484.00
2018-09-01T11:51:25.927Z,4548.00
2018-09-01T11:52:25.942Z,4464.00
2018-09-01T11:53:26.815Z,4464.00
2018-09-01T11:54:25.925Z,4592.00
2018-09-01T11:55:26.002Z,4788.00
2018-09-01T11:56:25.955Z,5064.00
2018-09-01T11:57:25.960Z,5448.00
2018-09-01T11:58:25.959Z,5936.00
2018-09-01T11:59:25.999Z,6340.00
2018-09-01T12:00:25.977Z,6640.00
2018-09-01T12:01:25.988Z,6884.00
2018-09-01T12:02:26.005Z,7072.00
2018-09-01T12:03:26.094Z,7260.00
2018-09-01T12:04:25.984Z,7688.00
2018-09-01T12:05:26.001Z,8152.00
2018-09-01T12:06:26.012Z,8300.00
2018-09-01T12:07:26.024Z,8408.00
2018-09-01T12:08:26.029Z,8776.00
2018-09-01T12:09:26.118Z,9076.00
2018-09-01T12:10:26.044Z,8788.00
2018-09-01T12:11:26.033Z,8560.00
2018-09-01T12:12:26.034Z,7836.00
2018-09-01T12:13:26.068Z,7268.00
2018-09-01T12:14:26.067Z,6672.00
2018-09-01T12:15:26.114Z,5900.00
2018-09-01T12:16:26.133Z,5184.00
2018-09-01T12:17:26.066Z,4836.00
2018-09-01T12:18:26.052Z,4800.00
2018-09-01T12:19:26.104Z,4848.00
2018-09-01T12:20:26.081Z,4832.00
2018-09-01T12:21:26.090Z,4744.00
2018-09-01T12:22:26.209Z,4592.00
2018-09-01T12:23:26.105Z,4484.00
2018-09-01T12:24:26.091Z,4440.00
2018-09-01T12:25:26.106Z,4436.00
2018-09-01T12:26:26.151Z,4420.00
2018-09-01T12:27:26.119Z,4408.00
2018-09-01T12:28:26.133Z,4428.00
2018-09-01T12:29:26.111Z,4464.00
2018-09-01T12:30:26.129Z,4444.00
2018-09-01T12:31:26.228Z,4496.00
2018-09-01T12:32:26.154Z,4728.00
2018-09-01T12:33:26.146Z,5076.00
2018-09-01T12:34:26.136Z,5512.00
2018-09-01T12:35:26.208Z,5820.00
2018-09-01T12:36:26.168Z,5920.00
2018-09-01T12:37:26.158Z,6264.00
2018-09-01T12:38:26.158Z,6588.00
2018-09-01T12:39:26.168Z,6324.00
2018-09-01T12:40:26.169Z,6220.00
2018-09-01T12:41:26.194Z,6324.00
2018-09-01T12:42:26.195Z,6812.00
2018-09-01T12:43:26.196Z,7472.00
2018-09-01T12:44:26.201Z,8124.00
2018-09-01T12:45:26.193Z,8564.00
2018-09-01T12:46:26.202Z,8696.00
2018-09-01T12:47:26.196Z,8932.00